Time;durP1;ratioP1;P1;durP2;ratioP2;P2;SDS_P1;SDS_P2;PMS_P1;PMS_P2;Temp;Humidity;BMP_temperature;BMP_pressure;BME280_temperature;BME280_humidity;BME280_pressure;Samples;Min_cycle;Max_cycle;Signal;HPM_P1;HPM_P2
2022/12/08 00:02:24;;;;;;;11.00;9.90;;;;;;;;;;5014838;28;20390;-88
2022/12/08 00:10:22;;;;;;;12.35;11.05;;;;;;;;;;5032660;28;20506;-90
2022/12/08 00:12:48;;;;;;;14.43;12.73;;;;;;;;;;5032846;28;20487;-91
2022/12/08 00:15:14;;;;;;;14.07;12.40;;;;;;;;;;5032234;28;20454;-91
2022/12/08 00:17:40;;;;;;;16.13;13.52;;;;;;;;;;5033018;28;20423;-90
2022/12/08 00:20:06;;;;;;;15.90;14.27;;;;;;;;;;5034550;28;20384;-90
2022/12/08 00:22:32;;;;;;;15.45;13.43;;;;;;;;;;5037409;28;20854;-91
2022/12/08 00:24:58;;;;;;;10.63;9.53;;;;;;;;;;5042594;28;20379;-91
2022/12/08 00:27:24;;;;;;;9.77;8.88;;;;;;;;;;5014393;28;20391;-88
2022/12/08 00:29:50;;;;;;;8.43;7.72;;;;;;;;;;5032667;28;20395;-88
2022/12/08 00:32:16;;;;;;;7.57;6.95;;;;;;;;;;5031850;28;20430;-92
2022/12/08 00:34:42;;;;;;;7.80;7.10;;;;;;;;;;5030888;28;20445;-89
2022/12/08 00:37:08;;;;;;;7.20;6.50;;;;;;;;;;5030782;28;20919;-90
2022/12/08 00:39:34;;;;;;;6.82;6.22;;;;;;;;;;5030821;28;20398;-91
2022/12/08 00:42:12;;;;;;;6.68;6.10;;;;;;;;;;5030761;28;20379;-91
2022/12/08 00:44:39;;;;;;;7.10;6.50;;;;;;;;;;5031958;28;20444;-91
2022/12/08 00:47:05;;;;;;;6.63;6.07;;;;;;;;;;5032414;28;20383;-91
2022/12/08 00:49:31;;;;;;;6.20;5.60;;;;;;;;;;5031687;28;20468;-90
2022/12/08 00:51:57;;;;;;;6.65;6.05;;;;;;;;;;5033995;28;20383;-90
2022/12/08 00:54:23;;;;;;;6.53;5.93;;;;;;;;;;5031997;28;20744;-91
2022/12/08 00:56:49;;;;;;;5.75;5.25;;;;;;;;;;5031496;28;20425;-91
2022/12/08 00:59:17;;;;;;;6.40;5.80;;;;;;;;;;5031308;28;20406;-91
2022/12/08 01:01:44;;;;;;;6.03;5.53;;;;;;;;;;5032052;28;20387;-90
2022/12/08 01:04:15;;;;;;;5.95;5.45;;;;;;;;;;5032097;28;20383;-90
2022/12/08 01:06:42;;;;;;;5.67;5.17;;;;;;;;;;5032286;28;20915;-90
2022/12/08 01:09:08;;;;;;;5.78;5.28;;;;;;;;;;5032398;28;20474;-91
2022/12/08 01:11:35;;;;;;;6.45;5.90;;;;;;;;;;5032176;28;20371;-89
2022/12/08 01:14:01;;;;;;;6.70;6.10;;;;;;;;;;5031737;28;20379;-90
2022/12/08 01:16:29;;;;;;;7.75;7.05;;;;;;;;;;5031612;28;20492;-90
2022/12/08 01:18:56;;;;;;;6.10;5.60;;;;;;;;;;5033067;28;20420;-90
2022/12/08 01:21:22;;;;;;;5.97;5.47;;;;;;;;;;5035693;28;20413;-90
2022/12/08 01:23:48;;;;;;;5.35;4.95;;;;;;;;;;5033986;28;20864;-91
2022/12/08 01:26:14;;;;;;;6.00;5.50;;;;;;;;;;5035602;28;20387;-89
2022/12/08 01:28:41;;;;;;;5.72;5.22;;;;;;;;;;5035535;28;20485;-91
2022/12/08 01:31:12;;;;;;;5.57;5.07;;;;;;;;;;5034919;28;20385;-90
2022/12/08 01:33:38;;;;;;;6.25;5.75;;;;;;;;;;5034065;28;20432;-91
2022/12/08 01:36:04;;;;;;;6.18;5.68;;;;;;;;;;5033530;28;20406;-90
2022/12/08 01:38:31;;;;;;;6.45;5.85;;;;;;;;;;5034923;28;20490;-92
2022/12/08 01:40:57;;;;;;;8.57;7.70;;;;;;;;;;5025450;28;20448;-89
2022/12/08 01:43:23;;;;;;;7.50;6.40;;;;;;;;;;5035044;28;20399;-90
2022/12/08 01:45:49;;;;;;;7.05;6.43;;;;;;;;;;5033900;28;20402;-91
2022/12/08 01:48:22;;;;;;;7.15;6.45;;;;;;;;;;5033526;28;20395;-90
2022/12/08 01:50:49;;;;;;;7.20;6.60;;;;;;;;;;5033499;28;20408;-91
2022/12/08 01:53:21;;;;;;;7.88;7.18;;;;;;;;;;5039356;28;20387;-90
2022/12/08 01:55:50;;;;;;;7.83;7.10;;;;;;;;;;5035209;28;20507;-90
2022/12/08 01:58:19;;;;;;;8.60;7.80;;;;;;;;;;5016915;28;20538;-89
2022/12/08 02:00:45;;;;;;;9.55;8.43;;;;;;;;;;5035061;28;20428;-90
2022/12/08 02:03:15;;;;;;;6.18;5.68;;;;;;;;;;5035023;28;20386;-92
2022/12/08 02:05:41;;;;;;;5.30;4.90;;;;;;;;;;5034519;28;20860;-91
2022/12/08 02:08:08;;;;;;;8.73;7.95;;;;;;;;;;5034638;28;20390;-91
2022/12/08 02:10:35;;;;;;;9.52;8.65;;;;;;;;;;5033197;28;20422;-90
2022/12/08 02:13:03;;;;;;;9.40;8.60;;;;;;;;;;5035174;28;20395;-91
2022/12/08 02:15:41;;;;;;;9.13;8.32;;;;;;;;;;5035683;28;20386;-91
2022/12/08 02:18:19;;;;;;;9.47;8.57;;;;;;;;;;5034376;28;20419;-92
2022/12/08 02:21:08;;;;;;;8.77;8.07;;;;;;;;;;5017722;28;20936;-92
2022/12/08 02:23:34;;;;;;;8.63;7.82;;;;;;;;;;5034387;28;20445;-90
2022/12/08 02:26:18;;;;;;;9.75;8.85;;;;;;;;;;5034071;28;20392;-90
2022/12/08 02:28:54;;;;;;;9.00;8.20;;;;;;;;;;5032948;28;20459;-90
2022/12/08 02:31:32;;;;;;;11.43;10.23;;;;;;;;;;5034112;28;20423;-91
2022/12/08 02:34:05;;;;;;;10.57;9.48;;;;;;;;;;5033052;28;20436;-91
2022/12/08 02:36:43;;;;;;;11.37;10.27;;;;;;;;;;5033804;28;20421;-90
2022/12/08 02:39:25;;;;;;;10.52;9.52;;;;;;;;;;5034464;28;20432;-91
2022/12/08 02:42:06;;;;;;;10.60;9.60;;;;;;;;;;5037177;28;20384;-91
2022/12/08 02:44:36;;;;;;;10.80;9.75;;;;;;;;;;5033564;28;20458;-92
2022/12/08 02:47:08;;;;;;;10.70;9.70;;;;;;;;;;5034047;28;20472;-92
2022/12/08 02:49:34;;;;;;;10.20;9.30;;;;;;;;;;5034146;28;20519;-91
2022/12/08 02:52:04;;;;;;;9.80;8.80;;;;;;;;;;5034018;28;20394;-90
2022/12/08 02:54:30;;;;;;;9.98;9.07;;;;;;;;;;5033928;28;20454;-91
2022/12/08 02:57:08;;;;;;;9.80;8.90;;;;;;;;;;5032399;28;20494;-90
2022/12/08 03:00:04;;;;;;;9.02;8.20;;;;;;;;;;5033581;28;20486;-91
2022/12/08 03:02:33;;;;;;;9.25;8.43;;;;;;;;;;5019949;28;20387;-90
2022/12/08 03:05:11;;;;;;;8.43;7.63;;;;;;;;;;5013484;28;20391;-89
2022/12/08 03:07:44;;;;;;;8.52;7.82;;;;;;;;;;5032176;28;20402;-90
2022/12/08 03:10:15;;;;;;;8.68;7.97;;;;;;;;;;5032131;28;20387;-90
2022/12/08 03:12:49;;;;;;;8.30;7.60;;;;;;;;;;5032294;28;20428;-89
2022/12/08 03:15:17;;;;;;;8.95;8.15;;;;;;;;;;5033657;28;20451;-89
2022/12/08 03:17:46;;;;;;;8.60;7.80;;;;;;;;;;5017156;28;20465;-89
2022/12/08 03:20:14;;;;;;;9.38;8.48;;;;;;;;;;5028106;28;20435;-91
2022/12/08 03:22:41;;;;;;;9.60;8.70;;;;;;;;;;5016771;28;20377;-90
2022/12/08 03:25:08;;;;;;;9.18;8.27;;;;;;;;;;5012728;28;20389;-88
2022/12/08 03:27:34;;;;;;;8.77;8.05;;;;;;;;;;5025668;28;20922;-91
2022/12/08 03:30:01;;;;;;;9.70;8.80;;;;;;;;;;5015316;28;20375;-89
2022/12/08 03:32:34;;;;;;;8.90;8.10;;;;;;;;;;5005596;28;20772;-89
2022/12/08 03:35:06;;;;;;;9.63;8.63;;;;;;;;;;5020146;28;20447;-89
2022/12/08 03:37:34;;;;;;;9.88;8.98;;;;;;;;;;5022127;28;20567;-88
2022/12/08 03:40:00;;;;;;;9.75;8.85;;;;;;;;;;5016924;28;20391;-91
2022/12/08 03:42:26;;;;;;;9.95;9.02;;;;;;;;;;5013513;28;20420;-89
2022/12/08 03:44:52;;;;;;;9.18;8.38;;;;;;;;;;5018998;28;20393;-89
2022/12/08 03:47:17;;;;;;;9.37;8.57;;;;;;;;;;5030835;28;20466;-91
2022/12/08 03:49:43;;;;;;;9.32;8.52;;;;;;;;;;5007248;28;20772;-90
2022/12/08 03:52:09;;;;;;;9.67;8.67;;;;;;;;;;5013892;28;20389;-88
2022/12/08 03:54:35;;;;;;;9.40;8.52;;;;;;;;;;5013588;28;20934;-91
2022/12/08 03:57:01;;;;;;;9.25;8.45;;;;;;;;;;5012067;28;20420;-88
2022/12/08 03:59:27;;;;;;;10.07;9.18;;;;;;;;;;4998123;28;20862;-90
2022/12/08 04:01:53;;;;;;;10.77;9.80;;;;;;;;;;5029422;28;20375;-90
2022/12/08 04:04:19;;;;;;;10.35;9.35;;;;;;;;;;5032430;28;20410;-89
2022/12/08 04:06:46;;;;;;;10.20;9.35;;;;;;;;;;5033443;28;20415;-89
2022/12/08 04:09:12;;;;;;;10.02;9.13;;;;;;;;;;5019619;28;20389;-90
2022/12/08 04:11:38;;;;;;;8.93;8.20;;;;;;;;;;5032819;28;20452;-90
2022/12/08 04:14:04;;;;;;;9.43;8.35;;;;;;;;;;5032128;28;20383;-89
2022/12/08 04:16:30;;;;;;;9.55;8.65;;;;;;;;;;5031809;28;20418;-89
2022/12/08 04:18:56;;;;;;;9.30;8.40;;;;;;;;;;5014703;28;20907;-91
2022/12/08 04:21:22;;;;;;;9.15;8.35;;;;;;;;;;5031270;28;20394;-90
2022/12/08 04:23:48;;;;;;;8.43;7.72;;;;;;;;;;5031039;28;20398;-90
2022/12/08 04:26:15;;;;;;;7.85;7.18;;;;;;;;;;5031393;28;20405;-89
2022/12/08 04:28:41;;;;;;;8.18;7.38;;;;;;;;;;5031122;28;20903;-89
2022/12/08 04:31:07;;;;;;;8.95;8.07;;;;;;;;;;5017174;28;20876;-91
2022/12/08 04:33:34;;;;;;;8.80;8.00;;;;;;;;;;5027954;28;20425;-90
2022/12/08 04:36:00;;;;;;;9.95;9.05;;;;;;;;;;5011425;28;20393;-90
2022/12/08 04:38:27;;;;;;;6.80;6.20;;;;;;;;;;5026548;28;20518;-90
2022/12/08 04:40:53;;;;;;;6.82;6.22;;;;;;;;;;5022468;28;20400;-91
2022/12/08 04:43:19;;;;;;;7.00;6.40;;;;;;;;;;5017071;28;20469;-91
2022/12/08 04:45:46;;;;;;;8.43;7.60;;;;;;;;;;5030376;28;20383;-91
2022/12/08 04:48:12;;;;;;;10.85;9.85;;;;;;;;;;5024858;28;20391;-91
2022/12/08 04:50:41;;;;;;;11.77;10.57;;;;;;;;;;5034952;28;20378;-90
2022/12/08 04:53:08;;;;;;;6.43;5.93;;;;;;;;;;5037603;28;20386;-91
2022/12/08 04:55:34;;;;;;;6.85;6.25;;;;;;;;;;5036108;28;20409;-90
2022/12/08 04:58:00;;;;;;;7.38;6.78;;;;;;;;;;5036267;28;20425;-89
2022/12/08 05:00:26;;;;;;;7.07;6.47;;;;;;;;;;5036099;28;20387;-92
2022/12/08 05:08:04;;;;;;;7.32;6.63;;;;;;;;;;5276015;22;20427;-92
2022/12/08 05:10:30;;;;;;;6.35;5.85;;;;;;;;;;5119619;27;20370;-92
2022/12/08 05:12:57;;;;;;;6.07;5.55;;;;;;;;;;5127258;27;20396;-92
2022/12/08 05:15:23;;;;;;;6.25;5.75;;;;;;;;;;5080371;28;20427;-91
2022/12/08 05:17:49;;;;;;;6.78;6.18;;;;;;;;;;5087708;28;20915;-91
2022/12/08 05:20:15;;;;;;;6.03;5.53;;;;;;;;;;5091139;28;20382;-92
2022/12/08 05:22:42;;;;;;;6.90;6.30;;;;;;;;;;5096203;28;20378;-93
2022/12/08 05:25:08;;;;;;;6.32;5.72;;;;;;;;;;5094875;28;20385;-92
2022/12/08 05:27:34;;;;;;;6.80;6.20;;;;;;;;;;5097431;28;20368;-93
2022/12/08 05:30:00;;;;;;;7.05;6.35;;;;;;;;;;5106332;28;20385;-89
2022/12/08 05:32:26;;;;;;;6.63;6.03;;;;;;;;;;5096182;28;20378;-90
2022/12/08 05:34:52;;;;;;;6.93;6.22;;;;;;;;;;5095778;28;20382;-89
2022/12/08 05:37:18;;;;;;;7.70;6.78;;;;;;;;;;5087005;28;20402;-89
2022/12/08 05:39:44;;;;;;;7.75;7.05;;;;;;;;;;5109974;28;20480;-90
2022/12/08 05:42:10;;;;;;;7.63;6.93;;;;;;;;;;5095635;28;20398;-89
2022/12/08 05:44:36;;;;;;;7.25;6.65;;;;;;;;;;5095499;28;20378;-89
2022/12/08 05:47:02;;;;;;;7.07;6.47;;;;;;;;;;5095119;28;20382;-90
2022/12/08 05:49:28;;;;;;;7.32;6.63;;;;;;;;;;5095149;28;20378;-89
2022/12/08 05:51:54;;;;;;;7.03;6.43;;;;;;;;;;5079973;28;20378;-90
2022/12/08 05:54:20;;;;;;;7.30;6.60;;;;;;;;;;5105234;28;20381;-88
2022/12/08 05:56:46;;;;;;;6.35;5.75;;;;;;;;;;5107397;28;20446;-90
2022/12/08 05:59:12;;;;;;;7.30;6.60;;;;;;;;;;5104089;28;20392;-89
2022/12/08 06:01:38;;;;;;;6.72;6.13;;;;;;;;;;5086847;28;20376;-90
2022/12/08 06:04:04;;;;;;;6.50;5.90;;;;;;;;;;5080590;28;20470;-89
2022/12/08 06:06:31;;;;;;;6.88;6.22;;;;;;;;;;5094505;28;20402;-91
2022/12/08 06:08:57;;;;;;;9.63;6.25;;;;;;;;;;5075072;28;20871;-90
2022/12/08 06:11:45;;;;;;;6.35;5.85;;;;;;;;;;5083352;28;20374;-90
2022/12/08 06:14:11;;;;;;;6.82;6.22;;;;;;;;;;5086236;28;20444;-89
2022/12/08 06:16:38;;;;;;;6.90;6.20;;;;;;;;;;5085397;28;20891;-88
2022/12/08 06:19:04;;;;;;;7.30;6.53;;;;;;;;;;5078877;28;20390;-90
2022/12/08 06:21:30;;;;;;;7.38;6.68;;;;;;;;;;5094165;28;20919;-88
2022/12/08 06:23:56;;;;;;;7.03;6.35;;;;;;;;;;5108741;28;20387;-89
2022/12/08 06:26:22;;;;;;;6.93;6.23;;;;;;;;;;5094732;28;20377;-92
2022/12/08 06:28:48;;;;;;;6.80;6.20;;;;;;;;;;5094659;28;20385;-89
2022/12/08 06:31:19;;;;;;;7.53;6.63;;;;;;;;;;5094482;28;20378;-91
2022/12/08 06:33:45;;;;;;;6.55;5.93;;;;;;;;;;5094516;28;20450;-89
2022/12/08 06:36:12;;;;;;;7.18;6.47;;;;;;;;;;5094687;28;20382;-90
2022/12/08 06:38:38;;;;;;;6.75;6.15;;;;;;;;;;5093619;28;20417;-87
2022/12/08 06:41:04;;;;;;;6.60;5.97;;;;;;;;;;5078782;28;20868;-88
2022/12/08 06:43:32;;;;;;;6.90;6.30;;;;;;;;;;5093163;28;20374;-90
2022/12/08 06:45:58;;;;;;;6.50;5.90;;;;;;;;;;5093881;28;20451;-90
2022/12/08 06:48:24;;;;;;;6.90;6.30;;;;;;;;;;5097632;28;20380;-89
2022/12/08 06:50:50;;;;;;;7.32;6.63;;;;;;;;;;5098588;28;20465;-91
2022/12/08 06:53:16;;;;;;;7.13;6.53;;;;;;;;;;5098212;28;20461;-90
2022/12/08 06:55:51;;;;;;;7.30;6.60;;;;;;;;;;5094029;28;20379;-88
2022/12/08 06:58:18;;;;;;;7.53;6.82;;;;;;;;;;5075567;28;20409;-89
2022/12/08 07:00:44;;;;;;;7.40;6.60;;;;;;;;;;5094091;28;20765;-88
2022/12/08 07:03:11;;;;;;;7.05;6.45;;;;;;;;;;5075486;28;20474;-89
2022/12/08 07:05:37;;;;;;;7.15;6.55;;;;;;;;;;5093989;28;20382;-89
2022/12/08 07:08:03;;;;;;;7.35;6.30;;;;;;;;;;5104957;28;20372;-88
2022/12/08 07:10:30;;;;;;;8.23;7.32;;;;;;;;;;5095833;28;20374;-86
2022/12/08 07:12:56;;;;;;;7.82;6.97;;;;;;;;;;5093559;28;20378;-87
2022/12/08 07:15:22;;;;;;;7.80;7.10;;;;;;;;;;5093134;28;20413;-87
2022/12/08 07:17:48;;;;;;;8.35;7.65;;;;;;;;;;5090657;28;20797;-88
2022/12/08 07:20:14;;;;;;;8.88;8.05;;;;;;;;;;5086540;28;20465;-86
2022/12/08 07:22:40;;;;;;;9.05;8.25;;;;;;;;;;5093305;28;20390;-89
2022/12/08 07:25:06;;;;;;;11.70;9.05;;;;;;;;;;5093463;28;20381;-87
2022/12/08 07:27:32;;;;;;;10.60;9.55;;;;;;;;;;5093545;28;20382;-90
2022/12/08 07:29:58;;;;;;;10.23;8.53;;;;;;;;;;5093443;28;20413;-90
2022/12/08 07:32:24;;;;;;;9.10;8.20;;;;;;;;;;5097496;28;20776;-91
2022/12/08 07:34:50;;;;;;;7.65;6.95;;;;;;;;;;5093421;28;20447;-91
2022/12/08 07:37:16;;;;;;;9.50;8.55;;;;;;;;;;5092843;28;20402;-90
2022/12/08 07:39:43;;;;;;;9.82;8.70;;;;;;;;;;5107425;28;20384;-91
2022/12/08 07:42:09;;;;;;;9.43;8.43;;;;;;;;;;5101339;28;20380;-89
2022/12/08 07:44:34;;;;;;;7.97;7.32;;;;;;;;;;5098844;28;20395;-89
2022/12/08 07:47:00;;;;;;;8.05;7.30;;;;;;;;;;5092883;28;20382;-90
2022/12/08 07:49:26;;;;;;;8.60;7.70;;;;;;;;;;5093006;28;20375;-91
2022/12/08 07:51:52;;;;;;;7.95;7.20;;;;;;;;;;5092958;28;20855;-90
2022/12/08 07:54:18;;;;;;;8.00;7.30;;;;;;;;;;5096341;28;20372;-90
2022/12/08 07:56:44;;;;;;;8.18;7.30;;;;;;;;;;5096693;28;20398;-89
2022/12/08 07:59:10;;;;;;;7.45;6.85;;;;;;;;;;5091296;28;20720;-91
2022/12/08 08:01:36;;;;;;;8.45;7.63;;;;;;;;;;5080233;28;20438;-91
2022/12/08 08:04:04;;;;;;;7.65;7.03;;;;;;;;;;5093038;28;20381;-90
2022/12/08 08:06:30;;;;;;;8.18;7.47;;;;;;;;;;5081925;28;20391;-90
2022/12/08 08:08:56;;;;;;;13.20;12.07;;;;;;;;;;5105564;28;20389;-90
2022/12/08 08:11:22;;;;;;;9.93;9.13;;;;;;;;;;5092657;28;20382;-91
2022/12/08 08:13:49;;;;;;;10.43;9.52;;;;;;;;;;5079099;28;20384;-90
2022/12/08 08:16:15;;;;;;;8.88;8.07;;;;;;;;;;5092757;28;20815;-90
2022/12/08 08:18:42;;;;;;;10.18;8.88;;;;;;;;;;5089422;28;20419;-90
2022/12/08 08:21:08;;;;;;;8.30;7.55;;;;;;;;;;5084095;28;20421;-90
2022/12/08 08:23:34;;;;;;;10.10;9.10;;;;;;;;;;5092607;28;20385;-90
2022/12/08 08:26:04;;;;;;;10.25;9.25;;;;;;;;;;5074281;28;20542;-90
2022/12/08 08:28:30;;;;;;;10.23;9.23;;;;;;;;;;5099039;28;20552;-91
2022/12/08 08:30:57;;;;;;;9.45;8.50;;;;;;;;;;5091674;28;20723;-90
2022/12/08 08:33:22;;;;;;;10.07;9.18;;;;;;;;;;5096074;28;20373;-90
2022/12/08 08:35:48;;;;;;;9.20;8.30;;;;;;;;;;5100280;28;20389;-91
2022/12/08 08:38:14;;;;;;;9.68;8.73;;;;;;;;;;5106358;28;20399;-90
2022/12/08 08:40:40;;;;;;;10.15;9.15;;;;;;;;;;5080678;28;20459;-91
2022/12/08 08:43:07;;;;;;;10.77;9.67;;;;;;;;;;5091357;28;20380;-90
2022/12/08 08:45:34;;;;;;;10.00;9.00;;;;;;;;;;5094368;28;20852;-91
2022/12/08 08:48:00;;;;;;;14.43;10.07;;;;;;;;;;5088011;28;20383;-90
2022/12/08 08:50:26;;;;;;;10.43;9.32;;;;;;;;;;5077943;28;20835;-91
2022/12/08 08:52:52;;;;;;;9.90;9.00;;;;;;;;;;5090663;28;20382;-90
2022/12/08 08:55:18;;;;;;;10.77;9.70;;;;;;;;;;5092309;28;20429;-90
2022/12/08 08:57:44;;;;;;;11.52;9.73;;;;;;;;;;5092188;28;20394;-91
2022/12/08 09:00:10;;;;;;;11.38;10.15;;;;;;;;;;5086718;28;20417;-91
2022/12/08 09:02:37;;;;;;;12.27;10.88;;;;;;;;;;5082820;28;20386;-90
2022/12/08 09:05:03;;;;;;;11.10;10.00;;;;;;;;;;5085976;28;20382;-90
2022/12/08 09:07:29;;;;;;;10.70;9.70;;;;;;;;;;5079393;28;20723;-91
2022/12/08 09:09:56;;;;;;;9.90;9.00;;;;;;;;;;5078513;28;20380;-90
2022/12/08 09:12:22;;;;;;;9.80;8.80;;;;;;;;;;5090554;28;20897;-90
2022/12/08 09:14:48;;;;;;;9.70;8.80;;;;;;;;;;5091917;28;20382;-90
2022/12/08 09:17:14;;;;;;;10.00;8.88;;;;;;;;;;5086177;28;20515;-90
2022/12/08 09:19:40;;;;;;;9.20;8.30;;;;;;;;;;5079152;28;20782;-91
2022/12/08 09:22:06;;;;;;;9.23;8.23;;;;;;;;;;5081002;28;20375;-90
2022/12/08 09:24:32;;;;;;;8.70;7.90;;;;;;;;;;5078146;28;20391;-90
2022/12/08 09:26:58;;;;;;;8.35;7.38;;;;;;;;;;5084606;28;20388;-90
2022/12/08 09:29:24;;;;;;;8.32;7.53;;;;;;;;;;5098665;28;20411;-91
2022/12/08 09:31:50;;;;;;;8.80;7.93;;;;;;;;;;5087124;28;20414;-87
2022/12/08 09:34:16;;;;;;;8.88;8.00;;;;;;;;;;5091505;28;20374;-90
2022/12/08 09:36:42;;;;;;;9.03;8.23;;;;;;;;;;5105891;28;20405;-91
2022/12/08 09:39:08;;;;;;;9.38;8.45;;;;;;;;;;5083198;28;20705;-90
2022/12/08 09:41:34;;;;;;;9.25;8.27;;;;;;;;;;5082635;28;20385;-90
2022/12/08 09:44:07;;;;;;;8.80;8.00;;;;;;;;;;5063611;28;20424;-89
2022/12/08 09:46:33;;;;;;;8.80;7.85;;;;;;;;;;5077658;28;20398;-90
2022/12/08 09:49:00;;;;;;;9.02;7.65;;;;;;;;;;5060678;28;20899;-90
2022/12/08 09:51:28;;;;;;;8.90;8.05;;;;;;;;;;5082891;28;20517;-91
2022/12/08 09:53:57;;;;;;;10.15;8.23;;;;;;;;;;5086612;28;20843;-89
2022/12/08 09:56:25;;;;;;;9.73;8.50;;;;;;;;;;5108476;28;20702;-89
2022/12/08 09:58:54;;;;;;;7.93;7.22;;;;;;;;;;5084126;28;20968;-88
2022/12/08 10:01:20;;;;;;;9.02;8.13;;;;;;;;;;5087920;28;20434;-89
2022/12/08 10:03:47;;;;;;;9.67;8.67;;;;;;;;;;5076672;28;20390;-89
2022/12/08 10:06:33;;;;;;;9.27;8.27;;;;;;;;;;5089825;28;20424;-90
2022/12/08 10:09:17;;;;;;;9.43;8.50;;;;;;;;;;5097408;28;20489;-89
2022/12/08 10:11:50;;;;;;;10.35;8.23;;;;;;;;;;5081307;28;20427;-89
2022/12/08 10:14:16;;;;;;;8.40;7.60;;;;;;;;;;5083647;28;20453;-90
2022/12/08 10:16:47;;;;;;;9.38;8.38;;;;;;;;;;5097896;28;20386;-91
2022/12/08 10:19:16;;;;;;;9.65;8.38;;;;;;;;;;5091440;28;20501;-90
2022/12/08 10:21:43;;;;;;;8.88;8.07;;;;;;;;;;5090989;28;20923;-90
2022/12/08 10:24:27;;;;;;;10.60;9.50;;;;;;;;;;5095337;28;20370;-91
2022/12/08 10:26:53;;;;;;;9.63;8.68;;;;;;;;;;5069337;28;20915;-91
2022/12/08 10:29:19;;;;;;;9.47;8.57;;;;;;;;;;5094770;28;20467;-89
2022/12/08 10:31:45;;;;;;;9.43;8.50;;;;;;;;;;5083304;28;20398;-89
2022/12/08 10:34:16;;;;;;;9.05;8.23;;;;;;;;;;5087344;28;20378;-90
2022/12/08 10:36:52;;;;;;;9.43;8.52;;;;;;;;;;5101745;28;20472;-88
2022/12/08 10:39:35;;;;;;;10.48;9.43;;;;;;;;;;5094661;28;20422;-89
2022/12/08 10:42:02;;;;;;;9.20;8.35;;;;;;;;;;5075884;28;20991;-89
2022/12/08 10:44:28;;;;;;;10.20;8.82;;;;;;;;;;5094013;28;20390;-89
2022/12/08 10:46:54;;;;;;;9.65;8.70;;;;;;;;;;5092090;28;20382;-88
2022/12/08 10:49:31;;;;;;;10.00;8.25;;;;;;;;;;5102806;28;20469;-89
2022/12/08 10:51:57;;;;;;;9.40;8.50;;;;;;;;;;5091620;28;20385;-88
2022/12/08 10:54:34;;;;;;;9.00;8.10;;;;;;;;;;5089087;28;20410;-88
2022/12/08 10:57:00;;;;;;;9.25;8.25;;;;;;;;;;5091524;28;20481;-89
2022/12/08 10:59:26;;;;;;;10.07;8.70;;;;;;;;;;5088023;28;20736;-89
2022/12/08 11:01:54;;;;;;;9.80;8.90;;;;;;;;;;5093899;28;20764;-88
2022/12/08 11:04:29;;;;;;;9.90;8.98;;;;;;;;;;5087771;28;20459;-90
2022/12/08 11:06:55;;;;;;;9.40;8.40;;;;;;;;;;5091502;28;20509;-90
2022/12/08 11:09:23;;;;;;;10.55;9.48;;;;;;;;;;5101450;28;20372;-90
2022/12/08 11:11:55;;;;;;;9.47;8.57;;;;;;;;;;5093704;28;20488;-90
2022/12/08 11:14:28;;;;;;;9.80;8.90;;;;;;;;;;5093267;28;20552;-88
2022/12/08 11:16:56;;;;;;;6.83;6.30;;;;;;;;;;5084963;28;20512;-89
2022/12/08 11:19:26;;;;;;;5.53;5.03;;;;;;;;;;5084888;28;20427;-90
2022/12/08 11:21:52;;;;;;;5.95;5.45;;;;;;;;;;5082340;28;20469;-91
2022/12/08 11:24:23;;;;;;;6.13;5.60;;;;;;;;;;5085762;28;20450;-89
2022/12/08 11:26:51;;;;;;;7.72;7.03;;;;;;;;;;5079832;28;20414;-89
2022/12/08 11:29:17;;;;;;;7.27;6.60;;;;;;;;;;5081822;28;20382;-89
2022/12/08 11:31:48;;;;;;;7.80;7.10;;;;;;;;;;5082459;28;20449;-90
2022/12/08 11:34:20;;;;;;;6.50;5.93;;;;;;;;;;5080456;28;20421;-90
2022/12/08 11:36:46;;;;;;;7.22;6.63;;;;;;;;;;5086657;28;20529;-90
2022/12/08 11:39:13;;;;;;;6.55;5.97;;;;;;;;;;5077279;28;20481;-91
2022/12/08 11:41:41;;;;;;;6.28;5.78;;;;;;;;;;5086945;28;20388;-90
2022/12/08 11:44:21;;;;;;;5.35;4.85;;;;;;;;;;5083332;28;20484;-90
2022/12/08 11:46:52;;;;;;;4.70;4.30;;;;;;;;;;5082947;28;20448;-90
2022/12/08 11:49:19;;;;;;;5.50;5.00;;;;;;;;;;5092210;28;20434;-90
2022/12/08 11:51:57;;;;;;;5.07;4.57;;;;;;;;;;5092506;28;20402;-89
2022/12/08 11:54:32;;;;;;;4.80;4.40;;;;;;;;;;5092452;28;20432;-89
2022/12/08 11:57:02;;;;;;;4.90;4.50;;;;;;;;;;5092475;28;20481;-88
2022/12/08 11:59:43;;;;;;;5.82;5.22;;;;;;;;;;5092555;28;20480;-88
2022/12/08 12:02:14;;;;;;;6.15;5.55;;;;;;;;;;5088749;28;20394;-89
2022/12/08 12:04:55;;;;;;;7.03;6.43;;;;;;;;;;5103964;28;20458;-90
2022/12/08 12:07:30;;;;;;;6.32;5.72;;;;;;;;;;5092288;28;20893;-89
2022/12/08 12:10:08;;;;;;;6.00;5.50;;;;;;;;;;5067291;28;20465;-88
2022/12/08 12:12:34;;;;;;;5.72;5.22;;;;;;;;;;5092337;28;20434;-91
2022/12/08 12:15:19;;;;;;;5.88;5.38;;;;;;;;;;5092353;28;20547;-91
2022/12/08 12:17:51;;;;;;;6.27;5.77;;;;;;;;;;5090757;28;20819;-90
2022/12/08 12:20:25;;;;;;;6.65;6.05;;;;;;;;;;5073931;28;20445;-90
2022/12/08 12:23:14;;;;;;;6.97;6.38;;;;;;;;;;5092515;28;20385;-89
2022/12/08 12:25:47;;;;;;;6.88;6.28;;;;;;;;;;5084196;28;20438;-90
2022/12/08 12:28:13;;;;;;;7.93;7.23;;;;;;;;;;5103021;28;20538;-90
2022/12/08 12:30:51;;;;;;;8.77;7.97;;;;;;;;;;5092280;28;20388;-90
2022/12/08 12:33:18;;;;;;;7.53;6.82;;;;;;;;;;5089734;28;20407;-90
2022/12/08 12:35:46;;;;;;;7.20;6.57;;;;;;;;;;5092468;28;20396;-91
2022/12/08 12:39:25;;;;;;;6.75;6.18;;;;;;;;;;5092946;28;20497;-91
2022/12/08 12:41:25;;;;;;;7.10;6.50;;;;;;;;;;5069891;28;20416;-89
2022/12/08 12:44:07;;;;;;;7.18;6.55;;;;;;;;;;5092134;28;20449;-89
2022/12/08 12:46:36;;;;;;;6.90;6.30;;;;;;;;;;5092305;28;20775;-89
2022/12/08 12:49:20;;;;;;;7.00;6.40;;;;;;;;;;5092300;28;20382;-91
2022/12/08 12:51:47;;;;;;;6.78;6.28;;;;;;;;;;5092324;28;20382;-90
2022/12/08 12:54:22;;;;;;;6.70;6.10;;;;;;;;;;5092446;28;20396;-89
2022/12/08 12:56:50;;;;;;;7.13;6.45;;;;;;;;;;5094965;28;20862;-90
2022/12/08 12:59:29;;;;;;;7.35;6.65;;;;;;;;;;5112473;28;20890;-89
2022/12/08 13:01:55;;;;;;;7.93;7.23;;;;;;;;;;5109730;28;20511;-88
2022/12/08 13:04:33;;;;;;;6.93;6.40;;;;;;;;;;5073764;28;20398;-89
2022/12/08 13:06:59;;;;;;;7.45;6.80;;;;;;;;;;5091820;28;20853;-90
2022/12/08 13:09:32;;;;;;;7.85;7.05;;;;;;;;;;5083820;28;20371;-90
2022/12/08 13:12:00;;;;;;;8.50;7.50;;;;;;;;;;5087648;28;20434;-89
2022/12/08 13:14:27;;;;;;;7.70;7.00;;;;;;;;;;5085249;28;20398;-90
2022/12/08 13:16:58;;;;;;;7.93;7.22;;;;;;;;;;5089457;28;20917;-92
2022/12/08 13:19:24;;;;;;;7.90;7.20;;;;;;;;;;5081937;28;20448;-91
2022/12/08 13:21:50;;;;;;;8.25;7.50;;;;;;;;;;5095807;28;20382;-91
2022/12/08 13:24:25;;;;;;;7.70;7.10;;;;;;;;;;5110422;28;20453;-91
2022/12/08 13:26:54;;;;;;;8.53;7.80;;;;;;;;;;5103956;28;20444;-91
2022/12/08 13:29:24;;;;;;;9.68;8.77;;;;;;;;;;5114619;28;20481;-90
2022/12/08 13:31:54;;;;;;;8.70;7.97;;;;;;;;;;5112154;28;20396;-91
2022/12/08 13:34:20;;;;;;;8.25;7.55;;;;;;;;;;5116222;28;20411;-92
2022/12/08 13:36:50;;;;;;;8.20;7.50;;;;;;;;;;5116094;28;20413;-91
2022/12/08 13:39:21;;;;;;;7.97;7.38;;;;;;;;;;5116181;28;20459;-92
2022/12/08 13:41:51;;;;;;;8.30;7.50;;;;;;;;;;5096846;28;20425;-91
2022/12/08 13:44:22;;;;;;;9.27;8.48;;;;;;;;;;5095417;28;20854;-91
2022/12/08 13:46:52;;;;;;;9.05;8.32;;;;;;;;;;5095194;28;20411;-91
2022/12/08 13:49:20;;;;;;;8.43;7.72;;;;;;;;;;5088368;28;20428;-89
2022/12/08 13:51:48;;;;;;;8.60;7.72;;;;;;;;;;5077813;28;20422;-91
2022/12/08 13:54:24;;;;;;;8.70;7.90;;;;;;;;;;5095284;28;20445;-90
2022/12/08 13:56:51;;;;;;;9.25;8.38;;;;;;;;;;5102747;28;20448;-90
2022/12/08 13:59:20;;;;;;;8.88;8.15;;;;;;;;;;5095305;28;20827;-90
2022/12/08 14:01:49;;;;;;;9.10;8.25;;;;;;;;;;5096857;28;20386;-90
2022/12/08 14:04:17;;;;;;;8.90;8.00;;;;;;;;;;5083763;28;20905;-88
2022/12/08 14:06:45;;;;;;;8.98;8.25;;;;;;;;;;5088873;28;20409;-91
2022/12/08 14:09:12;;;;;;;8.82;8.02;;;;;;;;;;5094939;28;20382;-90
2022/12/08 14:11:41;;;;;;;8.52;7.82;;;;;;;;;;5094681;28;20415;-90
2022/12/08 14:14:08;;;;;;;8.45;7.75;;;;;;;;;;5094599;28;20452;-90
2022/12/08 14:16:37;;;;;;;8.73;8.00;;;;;;;;;;5093606;28;20435;-91
2022/12/08 14:19:15;;;;;;;8.75;7.95;;;;;;;;;;5084019;28;20422;-90
2022/12/08 14:21:41;;;;;;;8.98;8.02;;;;;;;;;;5094881;28;20441;-91
2022/12/08 14:24:08;;;;;;;8.70;7.90;;;;;;;;;;5090596;28;20393;-90
2022/12/08 14:26:34;;;;;;;8.47;7.77;;;;;;;;;;5094390;28;20857;-90
2022/12/08 14:29:00;;;;;;;8.63;7.82;;;;;;;;;;5094927;28;20385;-90
2022/12/08 14:31:27;;;;;;;9.30;8.40;;;;;;;;;;5105943;28;20419;-91
2022/12/08 14:33:54;;;;;;;9.38;8.52;;;;;;;;;;5094537;28;20374;-90
2022/12/08 14:36:20;;;;;;;9.43;8.52;;;;;;;;;;5094295;28;20382;-91
2022/12/08 14:38:47;;;;;;;9.87;8.83;;;;;;;;;;5094498;28;20410;-90
2022/12/08 14:41:13;;;;;;;9.95;9.05;;;;;;;;;;5094242;28;20431;-90
2022/12/08 14:43:39;;;;;;;10.07;9.18;;;;;;;;;;5093749;28;20397;-91
2022/12/08 14:46:19;;;;;;;9.73;8.83;;;;;;;;;;5094284;28;20452;-90
2022/12/08 14:48:45;;;;;;;9.43;8.57;;;;;;;;;;5094452;28;20381;-90
2022/12/08 14:51:20;;;;;;;9.38;8.52;;;;;;;;;;5094296;28;20843;-90
2022/12/08 14:53:46;;;;;;;12.00;10.73;;;;;;;;;;5094072;28;20389;-91
2022/12/08 14:56:18;;;;;;;11.23;10.13;;;;;;;;;;5093979;28;20382;-90
2022/12/08 14:58:45;;;;;;;11.55;10.38;;;;;;;;;;5075404;28;20936;-90
2022/12/08 15:01:15;;;;;;;10.50;9.60;;;;;;;;;;5093843;28;20416;-90